Time;durP1;ratioP1;P1;durP2;ratioP2;P2;SDS_P1;SDS_P2;PMS_P1;PMS_P2;Temp;Humidity;BMP_temperature;BMP_pressure;BME280_temperature;BME280_humidity;BME280_pressure;Samples;Min_cycle;Max_cycle;Signal;HPM_P1;HPM_P2
2023/02/24 00:02:34;;;;;;;27.58;17.67;;;;;;;;;;5073457;28;20120;-84
2023/02/24 00:05:13;;;;;;;29.27;17.70;;;;;;;;;;5054482;28;20064;-84
2023/02/24 00:07:40;;;;;;;28.40;17.10;;;;;;;;;;5071263;28;20473;-85
2023/02/24 00:10:08;;;;;;;31.02;17.33;;;;;;;;;;5056010;28;20393;-86
2023/02/24 00:12:40;;;;;;;26.88;16.75;;;;;;;;;;5054410;28;20037;-85
2023/02/24 00:15:12;;;;;;;31.10;19.13;;;;;;;;;;5039159;28;20052;-85
2023/02/24 00:17:43;;;;;;;29.73;17.17;;;;;;;;;;5047610;28;20090;-84
2023/02/24 00:20:13;;;;;;;28.55;18.80;;;;;;;;;;5036418;28;20442;-85
2023/02/24 00:22:43;;;;;;;31.27;17.83;;;;;;;;;;5054496;28;20051;-83
2023/02/24 00:25:11;;;;;;;29.33;17.27;;;;;;;;;;5070397;28;20020;-83
2023/02/24 00:27:37;;;;;;;30.73;17.60;;;;;;;;;;5054182;28;20505;-84
2023/02/24 00:30:11;;;;;;;30.80;18.25;;;;;;;;;;5053805;28;20402;-84
2023/02/24 00:32:37;;;;;;;30.00;19.13;;;;;;;;;;5057948;28;20041;-85
2023/02/24 00:35:07;;;;;;;31.83;18.60;;;;;;;;;;5060674;22;20546;-85
2023/02/24 00:37:34;;;;;;;30.15;18.15;;;;;;;;;;5070617;28;20029;-84
2023/02/24 00:40:10;;;;;;;30.57;18.63;;;;;;;;;;5047782;28;20041;-85
2023/02/24 00:42:41;;;;;;;31.45;19.10;;;;;;;;;;5069182;28;20027;-83
2023/02/24 00:45:09;;;;;;;34.85;19.00;;;;;;;;;;5039978;28;20085;-84
2023/02/24 00:47:40;;;;;;;32.88;19.25;;;;;;;;;;5015213;28;20022;-85
2023/02/24 00:50:10;;;;;;;33.00;19.80;;;;;;;;;;5064036;28;20037;-84
2023/02/24 00:52:39;;;;;;;34.40;19.70;;;;;;;;;;5036081;28;20026;-85
2023/02/24 00:55:12;;;;;;;34.10;19.23;;;;;;;;;;5054787;28;20112;-84
2023/02/24 00:57:39;;;;;;;35.03;19.08;;;;;;;;;;5065664;28;20499;-84
2023/02/24 01:00:11;;;;;;;33.63;19.23;;;;;;;;;;5046191;28;20107;-84
2023/02/24 01:02:40;;;;;;;32.83;20.30;;;;;;;;;;5044886;28;20411;-85
2023/02/24 01:05:08;;;;;;;34.20;21.42;;;;;;;;;;5052492;28;20499;-85
2023/02/24 01:07:34;;;;;;;34.55;20.83;;;;;;;;;;5050283;28;20038;-85
2023/02/24 01:10:01;;;;;;;33.42;19.00;;;;;;;;;;5047343;28;20034;-84
2023/02/24 01:12:48;;;;;;;33.22;19.05;;;;;;;;;;5056292;28;20506;-85
2023/02/24 01:15:22;;;;;;;33.38;19.05;;;;;;;;;;5039600;28;20029;-84
2023/02/24 01:17:48;;;;;;;30.30;19.40;;;;;;;;;;5034530;28;20037;-85
2023/02/24 01:20:18;;;;;;;36.00;21.80;;;;;;;;;;5051493;28;20039;-84
2023/02/24 01:22:45;;;;;;;33.53;19.50;;;;;;;;;;5039961;28;20372;-84
2023/02/24 01:25:17;;;;;;;29.50;20.55;;;;;;;;;;5035760;28;20044;-85
2023/02/24 01:27:51;;;;;;;31.30;18.45;;;;;;;;;;5044059;28;20491;-84
2023/02/24 01:30:23;;;;;;;33.08;20.02;;;;;;;;;;5022641;28;20397;-85
2023/02/24 01:32:50;;;;;;;37.88;20.63;;;;;;;;;;5027065;28;20084;-85
2023/02/24 01:35:19;;;;;;;36.38;20.83;;;;;;;;;;5032652;28;20041;-86
2023/02/24 01:37:49;;;;;;;36.33;20.17;;;;;;;;;;5034697;28;20124;-84
2023/02/24 01:40:19;;;;;;;30.98;18.77;;;;;;;;;;5062171;28;20028;-84
2023/02/24 01:42:52;;;;;;;36.70;20.42;;;;;;;;;;5039332;28;20034;-85
2023/02/24 01:45:20;;;;;;;32.70;19.45;;;;;;;;;;5045538;28;20554;-84
2023/02/24 01:47:47;;;;;;;34.80;21.27;;;;;;;;;;5070527;28;20449;-85
2023/02/24 01:50:17;;;;;;;31.02;18.92;;;;;;;;;;5051245;28;20032;-84
2023/02/24 01:52:45;;;;;;;30.05;18.88;;;;;;;;;;5057289;28;20108;-82
2023/02/24 01:55:27;;;;;;;30.40;18.77;;;;;;;;;;5039393;28;20037;-84
2023/02/24 01:57:58;;;;;;;28.77;18.38;;;;;;;;;;5041088;28;20328;-83
2023/02/24 02:00:36;;;;;;;29.20;17.88;;;;;;;;;;5012661;28;20057;-82
2023/02/24 02:03:11;;;;;;;30.25;18.95;;;;;;;;;;5032871;28;20156;-83
2023/02/24 02:05:42;;;;;;;29.10;18.40;;;;;;;;;;5033452;28;20025;-85
2023/02/24 02:08:13;;;;;;;32.50;18.65;;;;;;;;;;5037402;28;20032;-83
2023/02/24 02:10:42;;;;;;;29.20;18.77;;;;;;;;;;5051769;28;20029;-84
2023/02/24 02:13:12;;;;;;;30.77;19.33;;;;;;;;;;5052069;28;20388;-83
2023/02/24 02:16:10;;;;;;;30.90;19.25;;;;;;;;;;5064552;28;20025;-83
2023/02/24 02:19:07;;;;;;;32.85;20.17;;;;;;;;;;5011035;28;20033;-85
2023/02/24 02:21:51;;;;;;;35.00;19.88;;;;;;;;;;5009105;28;20386;-85
2023/02/24 02:24:51;;;;;;;33.95;19.27;;;;;;;;;;4980545;28;20023;-85
2023/02/24 02:27:37;;;;;;;31.92;17.83;;;;;;;;;;4980197;28;20049;-83
2023/02/24 02:30:12;;;;;;;31.48;20.00;;;;;;;;;;4998823;28;20068;-83
2023/02/24 02:33:00;;;;;;;33.25;19.45;;;;;;;;;;4988748;28;20038;-85
2023/02/24 02:35:47;;;;;;;29.17;18.77;;;;;;;;;;4982436;28;20066;-84
2023/02/24 02:38:25;;;;;;;29.35;19.73;;;;;;;;;;4983545;28;20092;-84
2023/02/24 02:41:00;;;;;;;31.95;18.25;;;;;;;;;;4977495;28;20038;-85
2023/02/24 02:43:43;;;;;;;32.25;19.52;;;;;;;;;;4975148;28;20054;-83
2023/02/24 02:46:13;;;;;;;29.65;18.35;;;;;;;;;;4957591;28;20567;-84
2023/02/24 02:48:42;;;;;;;28.17;17.30;;;;;;;;;;4990536;28;20079;-84
2023/02/24 02:51:15;;;;;;;28.20;17.77;;;;;;;;;;4965121;28;20026;-83
2023/02/24 02:54:00;;;;;;;29.83;19.02;;;;;;;;;;4971223;28;20031;-85
2023/02/24 02:56:34;;;;;;;30.75;19.30;;;;;;;;;;5019339;28;20070;-85
2023/02/24 02:59:04;;;;;;;26.98;17.00;;;;;;;;;;5026153;28;20112;-84
2023/02/24 03:01:36;;;;;;;32.33;18.48;;;;;;;;;;5049197;28;20025;-84
2023/02/24 03:04:07;;;;;;;30.83;18.88;;;;;;;;;;5033528;28;20057;-84
2023/02/24 03:06:51;;;;;;;32.78;18.35;;;;;;;;;;5034073;28;20038;-85
2023/02/24 03:09:22;;;;;;;27.73;17.73;;;;;;;;;;5030181;28;20057;-85
2023/02/24 03:11:58;;;;;;;33.17;19.85;;;;;;;;;;5016748;28;20115;-83
2023/02/24 03:14:36;;;;;;;30.48;18.42;;;;;;;;;;5034649;28;20483;-84
2023/02/24 03:17:17;;;;;;;32.08;18.27;;;;;;;;;;5041893;28;20037;-85
2023/02/24 03:19:53;;;;;;;28.45;19.08;;;;;;;;;;5028767;28;20037;-84
2023/02/24 03:22:39;;;;;;;34.05;18.85;;;;;;;;;;5029859;28;20026;-84
2023/02/24 03:25:27;;;;;;;34.35;17.55;;;;;;;;;;5030970;28;20427;-86
2023/02/24 03:27:57;;;;;;;29.83;18.02;;;;;;;;;;5039665;28;20034;-85
2023/02/24 03:30:47;;;;;;;28.88;19.05;;;;;;;;;;5031206;28;20022;-84
2023/02/24 03:33:35;;;;;;;28.95;17.83;;;;;;;;;;5042813;28;20037;-85
2023/02/24 03:36:15;;;;;;;28.42;17.25;;;;;;;;;;5043182;28;20053;-85
2023/02/24 03:38:48;;;;;;;33.20;18.48;;;;;;;;;;5040448;28;20029;-84
2023/02/24 03:41:16;;;;;;;;;;;;;;;;;;5048839;28;20056;-85
2023/02/24 03:43:49;;;;;;;29.98;17.65;;;;;;;;;;5063988;22;21074;-84
2023/02/24 03:46:15;;;;;;;30.85;17.55;;;;;;;;;;5036495;28;20118;-85
2023/02/24 03:48:49;;;;;;;29.88;18.75;;;;;;;;;;5045976;28;20090;-84
2023/02/24 03:51:19;;;;;;;32.70;19.27;;;;;;;;;;5071552;28;20166;-84
2023/02/24 03:53:52;;;;;;;27.67;17.45;;;;;;;;;;5053012;28;20056;-86
2023/02/24 03:56:18;;;;;;;;;;;;;;;;;;5036650;28;20025;-84
2023/02/24 03:59:11;;;;;;;30.58;17.25;;;;;;;;;;5049856;28;20307;-84
2023/02/24 04:01:38;;;;;;;28.80;18.15;;;;;;;;;;5036093;28;20036;-85
2023/02/24 04:04:30;;;;;;;29.40;18.48;;;;;;;;;;5042241;28;20056;-84
2023/02/24 04:07:08;;;;;;;29.70;18.33;;;;;;;;;;5036315;28;20060;-85
2023/02/24 04:10:01;;;;;;;28.95;17.83;;;;;;;;;;5041005;28;20025;-84
2023/02/24 04:12:36;;;;;;;29.52;17.95;;;;;;;;;;5062074;28;20024;-83
2023/02/24 04:15:11;;;;;;;28.73;17.20;;;;;;;;;;5053899;28;20025;-82
2023/02/24 04:17:48;;;;;;;32.88;19.65;;;;;;;;;;5023609;28;20029;-83
2023/02/24 04:20:19;;;;;;;27.33;16.75;;;;;;;;;;5027024;28;20479;-83
2023/02/24 04:22:58;;;;;;;31.40;18.02;;;;;;;;;;5061879;28;20025;-84
2023/02/24 04:25:26;;;;;;;31.50;17.77;;;;;;;;;;5042053;28;20014;-84
2023/02/24 04:27:53;;;;;;;33.13;18.67;;;;;;;;;;5034522;28;20025;-85
2023/02/24 04:30:21;;;;;;;27.85;17.05;;;;;;;;;;5055428;28;21201;-84
2023/02/24 04:32:48;;;;;;;28.52;17.55;;;;;;;;;;5037841;28;20478;-83
2023/02/24 04:35:18;;;;;;;28.08;17.90;;;;;;;;;;5038079;28;20130;-84
2023/02/24 04:37:44;;;;;;;31.20;18.65;;;;;;;;;;5037380;28;20021;-83
2023/02/24 04:40:18;;;;;;;31.20;18.45;;;;;;;;;;5030638;28;20430;-85
2023/02/24 04:43:09;;;;;;;32.33;18.13;;;;;;;;;;5045321;28;20108;-84
2023/02/24 04:45:46;;;;;;;34.92;19.33;;;;;;;;;;5054711;28;20372;-83
2023/02/24 04:48:17;;;;;;;32.15;18.90;;;;;;;;;;5038144;28;20116;-84
2023/02/24 04:50:53;;;;;;;35.60;19.77;;;;;;;;;;5020689;28;20037;-85
2023/02/24 04:53:26;;;;;;;32.13;19.13;;;;;;;;;;5028294;28;20033;-86
2023/02/24 04:56:07;;;;;;;32.38;19.55;;;;;;;;;;5046389;28;20162;-85
2023/02/24 04:58:37;;;;;;;37.60;22.60;;;;;;;;;;5056082;28;20017;-85
2023/02/24 05:01:13;;;;;;;37.33;23.27;;;;;;;;;;5037997;28;20478;-83
2023/02/24 05:03:42;;;;;;;38.88;23.13;;;;;;;;;;5050988;28;20052;-85
2023/02/24 05:06:13;;;;;;;32.90;21.77;;;;;;;;;;5033209;28;20031;-85
2023/02/24 05:08:45;;;;;;;34.58;21.63;;;;;;;;;;5045002;28;20025;-85
2023/02/24 05:11:14;;;;;;;39.78;22.48;;;;;;;;;;5024218;28;20034;-85
2023/02/24 05:13:44;;;;;;;32.40;19.85;;;;;;;;;;5046739;28;20050;-83
2023/02/24 05:16:23;;;;;;;31.67;20.13;;;;;;;;;;5061721;28;20032;-85
2023/02/24 05:19:28;;;;;;;32.33;19.27;;;;;;;;;;5047352;28;20149;-84
2023/02/24 05:21:42;;;;;;;30.27;19.30;;;;;;;;;;5053794;28;20051;-84
2023/02/24 05:24:16;;;;;;;33.42;20.58;;;;;;;;;;5032891;28;20033;-84
2023/02/24 05:26:42;;;;;;;34.85;20.70;;;;;;;;;;5057151;28;20028;-84
2023/02/24 05:29:08;;;;;;;34.38;18.38;;;;;;;;;;5057190;28;20107;-84
2023/02/24 05:31:37;;;;;;;34.60;20.80;;;;;;;;;;4998380;28;20495;-85
2023/02/24 05:34:09;;;;;;;36.40;20.60;;;;;;;;;;4966803;28;20050;-84
2023/02/24 05:36:39;;;;;;;34.05;20.60;;;;;;;;;;4976693;28;20088;-84
2023/02/24 05:39:11;;;;;;;38.60;21.63;;;;;;;;;;4964893;28;20476;-85
2023/02/24 05:41:42;;;;;;;37.35;20.63;;;;;;;;;;4970485;28;20112;-84
2023/02/24 05:44:14;;;;;;;31.75;20.02;;;;;;;;;;4980415;28;20291;-82
2023/02/24 05:46:43;;;;;;;33.88;20.80;;;;;;;;;;4992009;28;20042;-84
2023/02/24 05:49:22;;;;;;;33.08;20.30;;;;;;;;;;4978615;28;20464;-85
2023/02/24 05:51:54;;;;;;;35.60;21.73;;;;;;;;;;4986814;28;20424;-83
2023/02/24 05:54:24;;;;;;;35.42;21.70;;;;;;;;;;4986877;28;20492;-82
2023/02/24 05:59:47;;;;;;;34.33;20.17;;;;;;;;;;5000727;28;20066;-83
2023/02/24 06:02:15;;;;;;;36.92;22.10;;;;;;;;;;4997712;28;20041;-84
2023/02/24 06:07:38;;;;;;;41.10;22.40;;;;;;;;;;4946461;29;20032;-85
2023/02/24 06:10:14;;;;;;;37.30;22.27;;;;;;;;;;4949377;29;20052;-84
2023/02/24 06:12:50;;;;;;;36.85;22.45;;;;;;;;;;4942945;29;20505;-84
2023/02/24 06:15:16;;;;;;;38.58;22.42;;;;;;;;;;4953649;28;20036;-85
2023/02/24 06:17:49;;;;;;;34.60;21.73;;;;;;;;;;4952104;29;20047;-85
2023/02/24 06:20:22;;;;;;;36.53;22.90;;;;;;;;;;4937269;29;20036;-85
2023/02/24 06:22:53;;;;;;;42.83;26.42;;;;;;;;;;4937934;29;20023;-85
2023/02/24 06:25:24;;;;;;;42.28;25.27;;;;;;;;;;4955936;29;20046;-85
2023/02/24 06:27:54;;;;;;;36.78;23.27;;;;;;;;;;4939861;28;20039;-84
2023/02/24 06:30:26;;;;;;;38.17;22.15;;;;;;;;;;4943936;28;20059;-84
2023/02/24 06:32:58;;;;;;;36.75;21.77;;;;;;;;;;4955366;28;20074;-83
2023/02/24 06:35:33;;;;;;;38.20;22.48;;;;;;;;;;4956735;28;20495;-84
2023/02/24 06:37:59;;;;;;;38.22;22.17;;;;;;;;;;4939724;28;20039;-84
2023/02/24 06:40:25;;;;;;;34.17;20.65;;;;;;;;;;4939453;29;20223;-84
2023/02/24 06:42:55;;;;;;;35.08;21.77;;;;;;;;;;4956710;28;20030;-83
2023/02/24 06:45:29;;;;;;;34.80;21.70;;;;;;;;;;5038486;28;20128;-83
2023/02/24 06:47:56;;;;;;;36.67;20.85;;;;;;;;;;5054671;28;20447;-84
2023/02/24 06:50:28;;;;;;;35.22;23.13;;;;;;;;;;5035328;28;20387;-85
2023/02/24 06:52:59;;;;;;;33.38;22.08;;;;;;;;;;5037942;28;20040;-84
2023/02/24 06:55:28;;;;;;;39.53;23.17;;;;;;;;;;5045497;28;20479;-83
2023/02/24 06:58:07;;;;;;;33.75;22.42;;;;;;;;;;5043092;28;20024;-82
2023/02/24 07:01:03;;;;;;;39.35;23.92;;;;;;;;;;5028114;28;20132;-84
2023/02/24 07:03:39;;;;;;;35.70;20.63;;;;;;;;;;5047228;28;20028;-84
2023/02/24 07:06:42;;;;;;;36.60;20.80;;;;;;;;;;5033513;28;20029;-85
2023/02/24 07:09:06;;;;;;;34.22;21.33;;;;;;;;;;5054642;28;20028;-85
2023/02/24 07:11:35;;;;;;;33.58;21.10;;;;;;;;;;5052782;28;20084;-85
2023/02/24 07:14:16;;;;;;;33.03;20.45;;;;;;;;;;5017528;28;20045;-85
2023/02/24 07:16:46;;;;;;;33.35;21.33;;;;;;;;;;5029162;28;20025;-82
2023/02/24 07:19:22;;;;;;;32.95;20.65;;;;;;;;;;5027805;28;20395;-84
2023/02/24 07:21:58;;;;;;;31.08;19.60;;;;;;;;;;5043439;28;20406;-83
2023/02/24 07:24:31;;;;;;;31.30;20.23;;;;;;;;;;5035726;28;20030;-84
2023/02/24 07:27:00;;;;;;;31.38;21.27;;;;;;;;;;5051987;28;20025;-84
2023/02/24 07:29:35;;;;;;;32.42;21.30;;;;;;;;;;5038122;28;20036;-83
2023/02/24 07:32:13;;;;;;;30.73;20.00;;;;;;;;;;5038172;28;20037;-84
2023/02/24 07:34:43;;;;;;;36.85;21.55;;;;;;;;;;5030710;28;20503;-84
2023/02/24 07:37:15;;;;;;;30.88;20.80;;;;;;;;;;5018000;28;20026;-82
2023/02/24 07:39:42;;;;;;;37.70;23.23;;;;;;;;;;5001378;28;20034;-84
2023/02/24 07:42:17;;;;;;;33.17;21.40;;;;;;;;;;5009472;28;20085;-84
2023/02/24 07:44:45;;;;;;;34.20;20.95;;;;;;;;;;5007450;28;20123;-85
2023/02/24 07:47:11;;;;;;;36.00;20.67;;;;;;;;;;5004349;28;20044;-85
2023/02/24 07:49:39;;;;;;;33.65;21.80;;;;;;;;;;5009550;28;20038;-83
2023/02/24 07:52:06;;;;;;;33.70;21.45;;;;;;;;;;5009693;28;20029;-83
2023/02/24 07:54:34;;;;;;;31.88;20.60;;;;;;;;;;5006922;28;20068;-83
2023/02/24 07:57:02;;;;;;;33.30;21.55;;;;;;;;;;5014532;28;20026;-84
2023/02/24 07:59:31;;;;;;;33.13;22.13;;;;;;;;;;5034350;28;20037;-85
2023/02/24 08:02:03;;;;;;;31.40;21.75;;;;;;;;;;5011491;28;20032;-87
2023/02/24 08:04:31;;;;;;;32.95;20.50;;;;;;;;;;4997216;28;20044;-83
2023/02/24 08:07:01;;;;;;;32.92;21.67;;;;;;;;;;5022311;28;20089;-83
2023/02/24 08:12:28;;;;;;;35.45;24.02;;;;;;;;;;5029131;28;20026;-83
2023/02/24 08:15:07;;;;;;;36.13;24.30;;;;;;;;;;5038321;28;20058;-83
2023/02/24 08:17:34;;;;;;;39.53;24.85;;;;;;;;;;5006981;28;20521;-83
2023/02/24 08:22:45;;;;;;;34.40;22.73;;;;;;;;;;5026095;28;20447;-84
2023/02/24 08:25:21;;;;;;;38.90;24.75;;;;;;;;;;5010292;28;20029;-84
2023/02/24 08:27:54;;;;;;;43.33;24.58;;;;;;;;;;5020166;28;20038;-84
2023/02/24 08:30:37;;;;;;;40.15;24.08;;;;;;;;;;5001070;28;20435;-84
2023/02/24 08:33:07;;;;;;;36.08;24.85;;;;;;;;;;5016322;28;20033;-84
2023/02/24 08:35:38;;;;;;;33.08;23.17;;;;;;;;;;5010822;28;20471;-83
2023/02/24 08:38:13;;;;;;;37.33;22.80;;;;;;;;;;4997485;28;20102;-84
2023/02/24 08:40:49;;;;;;;37.35;22.70;;;;;;;;;;5008055;28;20395;-85
2023/02/24 08:43:31;;;;;;;35.53;22.25;;;;;;;;;;5017593;28;20104;-84
2023/02/24 08:46:24;;;;;;;41.92;24.95;;;;;;;;;;5041998;28;20045;-85
2023/02/24 08:48:56;;;;;;;37.08;23.80;;;;;;;;;;5031113;28;20044;-83
2023/02/24 08:51:33;;;;;;;35.30;23.05;;;;;;;;;;5023188;28;20032;-84
2023/02/24 08:54:09;;;;;;;36.85;25.35;;;;;;;;;;5042992;28;20053;-83
2023/02/24 08:59:48;;;;;;;37.28;23.52;;;;;;;;;;5034659;28;20386;-84
2023/02/24 09:02:36;;;;;;;38.28;24.27;;;;;;;;;;5037851;28;20470;-85
2023/02/24 09:05:06;;;;;;;38.85;26.05;;;;;;;;;;5044452;28;20390;-84
2023/02/24 09:07:39;;;;;;;40.67;25.75;;;;;;;;;;5047830;28;20025;-84
2023/02/24 09:10:17;;;;;;;37.17;24.45;;;;;;;;;;5039950;28;20025;-83
2023/02/24 09:12:48;;;;;;;39.45;24.92;;;;;;;;;;5020878;28;20052;-85
2023/02/24 09:15:14;;;;;;;40.33;25.30;;;;;;;;;;5065520;28;20021;-84
2023/02/24 09:17:50;;;;;;;35.15;23.55;;;;;;;;;;5058624;28;20016;-85
2023/02/24 09:20:55;;;;;;;36.17;22.63;;;;;;;;;;5056328;28;20036;-84
2023/02/24 09:23:44;;;;;;;36.42;24.35;;;;;;;;;;5049632;28;20047;-84
2023/02/24 09:26:12;;;;;;;38.78;22.90;;;;;;;;;;5045284;28;20031;-83
2023/02/24 09:28:54;;;;;;;36.30;24.98;;;;;;;;;;5031536;28;20029;-84
2023/02/24 09:31:22;;;;;;;34.80;24.00;;;;;;;;;;5035436;28;20029;-84
2023/02/24 09:33:52;;;;;;;35.85;24.20;;;;;;;;;;5026682;28;20028;-83
2023/02/24 09:36:26;;;;;;;36.55;23.10;;;;;;;;;;5044188;28;20025;-84
2023/02/24 09:39:13;;;;;;;37.13;23.98;;;;;;;;;;5044041;28;20033;-84
2023/02/24 09:41:52;;;;;;;39.03;23.58;;;;;;;;;;5037178;28;20032;-83
2023/02/24 09:44:25;;;;;;;36.47;24.92;;;;;;;;;;5045558;28;20367;-85
2023/02/24 09:46:54;;;;;;;35.75;23.30;;;;;;;;;;5037649;28;20048;-84
2023/02/24 09:49:45;;;;;;;40.08;24.60;;;;;;;;;;5041086;28;20479;-85
2023/02/24 09:52:38;;;;;;;37.47;23.83;;;;;;;;;;5039576;28;20698;-85
2023/02/24 09:55:34;;;;;;;33.35;23.55;;;;;;;;;;5037467;28;20040;-84
2023/02/24 10:01:19;;;;;;;34.50;23.77;;;;;;;;;;5055656;28;20036;-83
2023/02/24 10:04:03;;;;;;;33.43;21.67;;;;;;;;;;5038346;28;20083;-84
2023/02/24 10:06:34;;;;;;;35.60;23.02;;;;;;;;;;5028522;28;20276;-84
2023/02/24 10:09:10;;;;;;;37.60;23.33;;;;;;;;;;5038775;28;20029;-83
2023/02/24 10:11:52;;;;;;;32.88;22.58;;;;;;;;;;5039762;28;20033;-85
2023/02/24 10:14:37;;;;;;;33.97;22.30;;;;;;;;;;5043644;28;20028;-84
2023/02/24 10:17:38;;;;;;;32.60;22.05;;;;;;;;;;5017763;28;20369;-83
2023/02/24 10:23:34;;;;;;;29.75;19.67;;;;;;;;;;5048209;28;20136;-83
2023/02/24 10:26:43;;;;;;;27.27;19.38;;;;;;;;;;4971592;28;20042;-82
2023/02/24 10:29:21;;;;;;;24.75;17.42;;;;;;;;;;4968825;28;20031;-83
2023/02/24 10:32:01;;;;;;;31.50;19.33;;;;;;;;;;4994083;28;20145;-84
2023/02/24 10:34:43;;;;;;;28.42;19.00;;;;;;;;;;4963422;28;20033;-84
2023/02/24 10:37:26;;;;;;;30.05;18.30;;;;;;;;;;4974093;28;20039;-83
2023/02/24 10:39:58;;;;;;;27.25;18.35;;;;;;;;;;4967869;28;20519;-84
2023/02/24 10:42:30;;;;;;;30.38;18.60;;;;;;;;;;4988001;28;20143;-83
2023/02/24 10:45:22;;;;;;;23.83;17.90;;;;;;;;;;4970029;28;20050;-83
2023/02/24 10:47:58;;;;;;;23.85;15.55;;;;;;;;;;4980810;28;20124;-82
2023/02/24 10:50:24;;;;;;;24.17;15.57;;;;;;;;;;4981194;28;20038;-81
2023/02/24 10:58:26;;;;;;;36.35;17.65;;;;;;;;;;4986974;28;20041;-84
2023/02/24 11:01:16;;;;;;;23.52;15.73;;;;;;;;;;4989323;28;20539;-83
2023/02/24 11:04:00;;;;;;;22.27;14.57;;;;;;;;;;5042141;28;20033;-83
2023/02/24 11:17:59;;;;;;;24.92;14.70;;;;;;;;;;5044460;28;20398;-82
2023/02/24 11:20:45;;;;;;;22.35;14.68;;;;;;;;;;5034297;28;20048;-82
2023/02/24 11:23:15;;;;;;;22.20;14.27;;;;;;;;;;5023541;28;20041;-84
2023/02/24 11:25:49;;;;;;;18.77;13.55;;;;;;;;;;5035392;28;20131;-83
2023/02/24 11:28:42;;;;;;;20.50;13.13;;;;;;;;;;5055267;28;20033;-83
2023/02/24 11:31:33;;;;;;;22.70;13.57;;;;;;;;;;5025189;28;20025;-83
2023/02/24 11:34:18;;;;;;;22.58;13.00;;;;;;;;;;5026822;28;20372;-83
2023/02/24 11:36:58;;;;;;;22.70;13.02;;;;;;;;;;5035659;28;20029;-83
2023/02/24 11:39:57;;;;;;;24.00;13.40;;;;;;;;;;5023411;28;20372;-82
2023/02/24 11:42:48;;;;;;;21.45;12.70;;;;;;;;;;4986580;28;20091;-83
2023/02/24 11:45:29;;;;;;;21.42;12.88;;;;;;;;;;4955662;28;20042;-83
2023/02/24 11:48:04;;;;;;;18.80;12.55;;;;;;;;;;4979819;28;20046;-83
2023/02/24 11:50:38;;;;;;;18.75;12.10;;;;;;;;;;4961376;28;20487;-82
2023/02/24 11:53:10;;;;;;;22.33;13.18;;;;;;;;;;4981004;28;20126;-82
2023/02/24 11:55:45;;;;;;;19.02;12.38;;;;;;;;;;4972325;28;20043;-83
2023/02/24 11:58:37;;;;;;;20.00;12.50;;;;;;;;;;4974744;28;20034;-83
2023/02/24 12:01:12;;;;;;;21.05;13.57;;;;;;;;;;4974784;28;20504;-82
2023/02/24 12:04:07;;;;;;;22.40;14.05;;;;;;;;;;4955874;28;20047;-82
2023/02/24 12:06:57;;;;;;;21.73;13.10;;;;;;;;;;4955909;28;20500;-82
2023/02/24 12:09:28;;;;;;;21.48;14.35;;;;;;;;;;4962109;28;20086;-83
2023/02/24 12:12:01;;;;;;;21.00;14.68;;;;;;;;;;4953625;28;20027;-82
2023/02/24 12:14:51;;;;;;;22.40;14.98;;;;;;;;;;4940744;28;20035;-81
2023/02/24 12:17:29;;;;;;;22.23;14.25;;;;;;;;;;4953573;28;20031;-85
2023/02/24 12:20:04;;;;;;;22.95;13.95;;;;;;;;;;4955041;28;20062;-81
2023/02/24 12:22:34;;;;;;;22.13;13.88;;;;;;;;;;5026935;28;20029;-83
2023/02/24 12:25:03;;;;;;;20.73;12.68;;;;;;;;;;5022432;28;20064;-82
2023/02/24 12:27:41;;;;;;;20.73;13.43;;;;;;;;;;5037674;28;20028;-83
2023/02/24 12:30:34;;;;;;;21.70;12.80;;;;;;;;;;5038472;28;20096;-82
2023/02/24 12:33:33;;;;;;;19.40;13.13;;;;;;;;;;5036941;28;20051;-83
2023/02/24 12:36:11;;;;;;;17.55;11.93;;;;;;;;;;5024383;28;20040;-84
2023/02/24 12:39:05;;;;;;;18.67;12.77;;;;;;;;;;5056970;28;20044;-84
2023/02/24 12:41:38;;;;;;;17.27;11.52;;;;;;;;;;5041091;28;20040;-82
2023/02/24 12:44:43;;;;;;;19.05;11.68;;;;;;;;;;5047214;28;20025;-83
2023/02/24 12:47:31;;;;;;;19.65;11.40;;;;;;;;;;4972724;28;20073;-82
2023/02/24 12:50:00;;;;;;;16.65;11.63;;;;;;;;;;4975497;28;20039;-82
2023/02/24 12:52:41;;;;;;;21.70;13.05;;;;;;;;;;4993219;28;20026;-83
2023/02/24 12:55:41;;;;;;;17.52;10.65;;;;;;;;;;5014199;28;20124;-83
2023/02/24 12:58:21;;;;;;;17.25;11.43;;;;;;;;;;4961144;28;20111;-83
2023/02/24 13:01:11;;;;;;;16.38;10.20;;;;;;;;;;4971430;28;20150;-82
2023/02/24 13:03:50;;;;;;;14.00;9.35;;;;;;;;;;4990090;28;20481;-82
2023/02/24 13:06:16;;;;;;;17.42;10.77;;;;;;;;;;4981631;28;20120;-83
2023/02/24 13:08:54;;;;;;;19.05;11.85;;;;;;;;;;4976993;28;20043;-83
2023/02/24 13:11:41;;;;;;;17.27;11.20;;;;;;;;;;4979480;28;20109;-82
2023/02/24 13:14:13;;;;;;;16.80;10.40;;;;;;;;;;4976846;28;20046;-82
2023/02/24 13:16:42;;;;;;;22.48;11.45;;;;;;;;;;4976923;28;20544;-83
2023/02/24 13:19:21;;;;;;;15.80;10.75;;;;;;;;;;4969823;28;20035;-83
2023/02/24 13:22:01;;;;;;;19.55;11.93;;;;;;;;;;4978301;28;20483;-82
2023/02/24 13:24:36;;;;;;;19.00;12.00;;;;;;;;;;4976864;28;20038;-83
2023/02/24 13:27:14;;;;;;;21.67;12.07;;;;;;;;;;4976097;28;20034;-83
2023/02/24 13:29:57;;;;;;;17.85;11.13;;;;;;;;;;4995071;28;20030;-82
2023/02/24 13:32:31;;;;;;;16.50;11.23;;;;;;;;;;4972587;28;20469;-83
2023/02/24 13:35:01;;;;;;;18.13;11.70;;;;;;;;;;4994505;28;20447;-82
2023/02/24 13:37:34;;;;;;;16.73;10.82;;;;;;;;;;5026225;28;20025;-84
2023/02/24 13:40:00;;;;;;;17.77;10.93;;;;;;;;;;5016004;28;20040;-82
2023/02/24 13:42:34;;;;;;;18.50;11.00;;;;;;;;;;5028690;28;20107;-83
2023/02/24 13:45:12;;;;;;;18.52;9.65;;;;;;;;;;5018994;28;20025;-84
2023/02/24 13:47:42;;;;;;;12.05;6.88;;;;;;;;;;5040756;28;20083;-83
2023/02/24 13:50:47;;;;;;;10.60;7.07;;;;;;;;;;5037478;28;20098;-84
2023/02/24 13:53:32;;;;;;;9.50;4.80;;;;;;;;;;4941358;29;20054;-84
2023/02/24 13:56:09;;;;;;;10.15;5.40;;;;;;;;;;4936063;29;20031;-84
2023/02/24 13:59:08;;;;;;;;;;;;;;;;;;;;;
2023/02/24 14:02:08;;;;;;;6.97;2.60;;;;;;;;;;4946476;29;20035;-82
2023/02/24 14:04:40;;;;;;;7.68;2.92;;;;;;;;;;4895573;29;20045;-82
2023/02/24 14:07:17;;;;;;;6.05;2.70;;;;;;;;;;4897626;29;20587;-82
2023/02/24 14:09:48;;;;;;;7.88;2.97;;;;;;;;;;4894842;29;20036;-82
2023/02/24 14:12:17;;;;;;;8.07;2.97;;;;;;;;;;4878972;29;20029;-82
2023/02/24 14:14:47;;;;;;;7.60;3.30;;;;;;;;;;4882739;29;20515;-83
2023/02/24 14:17:27;;;;;;;8.02;3.08;;;;;;;;;;4897310;29;20119;-82
2023/02/24 14:19:54;;;;;;;9.45;3.70;;;;;;;;;;4891806;29;20127;-82
2023/02/24 14:22:24;;;;;;;7.43;3.35;;;;;;;;;;4894208;29;20029;-82
2023/02/24 14:25:03;;;;;;;7.68;4.50;;;;;;;;;;4895517;29;20036;-81
2023/02/24 14:27:29;;;;;;;6.78;3.67;;;;;;;;;;4947483;28;20408;-82
2023/02/24 14:30:22;;;;;;;7.68;3.78;;;;;;;;;;4989407;28;20030;-81
2023/02/24 14:32:58;;;;;;;7.15;3.28;;;;;;;;;;4966999;28;20512;-81
2023/02/24 14:35:43;;;;;;;7.68;3.20;;;;;;;;;;4976155;28;20078;-81
2023/02/24 14:38:31;;;;;;;8.15;3.70;;;;;;;;;;4958205;28;20018;-81
2023/02/24 14:41:14;;;;;;;8.35;3.70;;;;;;;;;;5032299;28;20045;-81
2023/02/24 14:43:45;;;;;;;8.82;3.97;;;;;;;;;;5020114;28;20036;-81
2023/02/24 14:46:15;;;;;;;9.15;3.70;;;;;;;;;;5033736;28;20418;-82
2023/02/24 14:48:57;;;;;;;7.10;3.50;;;;;;;;;;5045812;28;20067;-82
2023/02/24 14:51:35;;;;;;;6.95;2.90;;;;;;;;;;5037686;28;20032;-82
2023/02/24 14:54:06;;;;;;;7.75;3.15;;;;;;;;;;5037247;28;20490;-81
2023/02/24 14:56:34;;;;;;;8.45;4.20;;;;;;;;;;5044228;28;20566;-82
2023/02/24 14:59:05;;;;;;;10.18;3.53;;;;;;;;;;5028737;28;20057;-83
2023/02/24 15:01:40;;;;;;;8.13;3.35;;;;;;;;;;5035950;28;20092;-83
2023/02/24 15:04:28;;;;;;;8.48;3.30;;;;;;;;;;5017452;28;20041;-83
2023/02/24 15:06:56;;;;;;;5.75;3.00;;;;;;;;;;5037132;28;20032;-83
2023/02/24 15:09:25;;;;;;;8.18;3.85;;;;;;;;;;5049700;28;20483;-82
2023/02/24 15:11:59;;;;;;;9.35;3.72;;;;;;;;;;5052481;28;20048;-84
2023/02/24 15:14:28;;;;;;;8.73;4.28;;;;;;;;;;5052327;28;20487;-82
2023/02/24 15:16:59;;;;;;;8.70;3.85;;;;;;;;;;5037224;28;20445;-83
2023/02/24 15:19:31;;;;;;;7.72;3.70;;;;;;;;;;5036557;28;20079;-84
2023/02/24 15:22:01;;;;;;;9.88;4.15;;;;;;;;;;5037352;28;20071;-82
2023/02/24 15:24:35;;;;;;;7.95;4.03;;;;;;;;;;5029597;28;20045;-83
2023/02/24 15:27:14;;;;;;;9.02;4.03;;;;;;;;;;5035933;28;20021;-83
2023/02/24 15:29:44;;;;;;;8.73;3.72;;;;;;;;;;5036145;28;20021;-83
2023/02/24 15:32:16;;;;;;;7.28;3.97;;;;;;;;;;5039512;28;20050;-83
2023/02/24 15:34:53;;;;;;;7.68;3.85;;;;;;;;;;5055657;28;20017;-83
2023/02/24 15:37:39;;;;;;;8.50;4.13;;;;;;;;;;5027749;28;20084;-84
2023/02/24 15:40:17;;;;;;;7.13;4.20;;;;;;;;;;5018931;28;20032;-82
2023/02/24 15:42:49;;;;;;;6.78;3.67;;;;;;;;;;5057542;28;20025;-83
2023/02/24 15:45:28;;;;;;;7.93;3.83;;;;;;;;;;5074132;28;20414;-83
2023/02/24 15:47:55;;;;;;;10.38;4.13;;;;;;;;;;5054346;28;20060;-85
2023/02/24 15:50:23;;;;;;;7.93;3.60;;;;;;;;;;5043621;28;20464;-83